METAR Data
IDs: Format: Raw Decoded Include TAF

Data at: 2012 UTC 22 Sep 2020

KOSH 221953Z 22006KT 10SM CLR 25/15 A3007 RMK AO2 SLP175 T02500150
KOSH 221853Z VRB03KT 10SM CLR 24/15 A3010 RMK AO2 SLP183 T02440150
KOSH 221753Z 00000KT 10SM CLR 23/14 A3012 RMK AO2 SLP190 60000 T02330144 10239 20150 57015
KOSH 221653Z 24003KT 10SM CLR 22/14 A3013 RMK AO2 SLP194 T02220144
KOSH 221553Z VRB04KT 10SM CLR 21/13 A3015 RMK AO2 RAB1456E08 SLP202 P0000 T02110133
KOSH 221453Z 25006KT 10SM FEW060 FEW120 19/12 A3016 RMK AO2 SLP208 T01890122 51003
KOSH 221353Z VRB03KT 10SM CLR 17/12 A3016 RMK AO2 SLP208 T01720117
KOSH 221253Z 21005KT 10SM CLR 15/11 A3016 RMK AO2 SLP208 T01500111 $
KOSH 221153Z 20007KT 10SM FEW120 15/10 A3015 RMK AO2 SLP205 60000 70001 T01500100 10156 20144 56004
KOSH 221053Z 20005KT 10SM CLR 15/10 A3015 RMK AO2 RAB44E53 SLP205 P0000 T01500100
KOSH 220953Z AUTO 21007KT 10SM CLR 14/10 A3016 RMK AO2 SLP206 T01440100
KOSH 220853Z AUTO 19006KT 10SM BKN120 14/11 A3017 RMK AO2 SLP208 T01440106 58009
KOSH 220753Z AUTO 20005KT 10SM CLR 15/11 A3019 RMK AO2 SLP214 T01500106
KOSH 220653Z AUTO 20007KT 10SM FEW090 SCT110 16/10 A3019 RMK AO2 SLP217 T01560100
KOSH 220553Z AUTO 18006KT 10SM SCT095 BKN120 14/10 A3019 RMK AO2 RAB16E48 TSB16 SLP217 P0001 60001 T01440100 10178 20117 402280083 58001
KOSH 220541Z AUTO 18009KT 10SM -RA FEW060 BKN095 OVC120 14/11 A3019 RMK AO2 RAB16 TSB16 P0001 T01440106
KOSH 220522Z AUTO 19007KT 10SM -TSRA FEW055 OVC110 16/09 A3020 RMK AO2 RAB16 TSB16 P0000 T01560094
KOSH 220453Z AUTO 20004KT 10SM BKN120 16/09 A3021 RMK AO2 SLP222 T01610089
KOSH 220353Z AUTO 19005KT 10SM CLR 14/09 A3020 RMK AO2 SLP219 T01440094
KOSH 220253Z 00000KT 10SM CLR 14/09 A3019 RMK AO2 SLP221 T01440094 50001
KOSH 220153Z 00000KT 10SM CLR 14/08 A3020 RMK AO2 SLP224 T01390083
KOSH 220053Z 16004KT 10SM CLR 15/09 A3019 RMK AO2 SLP223 T01500089
KOSH 212353Z 16006KT 10SM CLR 18/09 A3019 RMK AO2 SLP222 T01780089 10228 20178 56013
KOSH 212253Z 18008KT 10SM CLR 19/09 A3020 RMK AO2 SLP224 T01890089
KOSH 212153Z 19013KT 10SM CLR 22/07 A3021 RMK AO2 SLP225 T02170072
KOSH 212053Z 19014G18KT 10SM CLR 22/08 A3023 RMK AO2 SLP233 T02220083 56023
KOSH 211953Z 20010G18KT 10SM CLR 22/07 A3024 RMK AO2 SLP235 T02220072
KOSH 211853Z 18011KT 10SM CLR 22/08 A3027 RMK AO2 SLP245 T02220078
KOSH 211753Z 20013G20KT 10SM CLR 22/07 A3030 RMK AO2 SLP255 T02170072 10217 20100 58015
KOSH 211653Z 21015G26KT 10SM CLR 21/06 A3031 RMK AO2 PK WND 20026/1650 SLP262 T02060061
KOSH 211553Z 19013G19KT 10SM CLR 18/06 A3033 RMK AO2 SLP268 T01830061
KOSH 211453Z 19009KT 10SM CLR 16/06 A3034 RMK AO2 SLP273 T01610061 51003
KOSH 211353Z COR 19009G15KT 10SM CLR 13/07 A3034 RMK AO2 SLP274 T0133 $
KOSH 211253Z 18010KT 10SM CLR 11/06 A3034 RMK AO2 SLP274 T01110061
KOSH 211153Z 20005KT 10SM CLR 10/05 A3033 RMK AO2 SLP270 T01000050 10117 20083 53004
KOSH 211053Z 19005KT 10SM CLR 10/06 A3032 RMK AO2 SLP266 T01000061
KOSH 210953Z AUTO 17004KT 10SM CLR 09/06 A3032 RMK AO2 SLP266 T00890061
KOSH 210853Z AUTO 17004KT 10SM CLR 08/07 A3032 RMK AO2 SLP266 T00830067 56001